Monday, January 21, 2019, 5:38 PM EST
Back to Local

KHVN, Tweed-new Haven Airport

Location: East Haven, CT, United States Lat: 41.267
Local Time: 5:38 PM EST (22:38 GMT) Lon: -72.883
Time Zone: US/Eastern Elev: 13 ft

Show me the last for .
Show Decoded

2019-01-21 16:53 METAR KHVN 212153Z 32013G25KT 10SM SCT048 M09/M17 A3003 RMK AO2 PK WND
                 32029/2114 SLP168 T10941172 =
2019-01-21 15:53 METAR KHVN 212053Z 32011G22KT 10SM FEW041 M09/M17 A2999 RMK AO2 PK WND
                 32030/2030 SLP155 T10941167 53012 =
2019-01-21 14:53 METAR KHVN 211953Z 31011G25KT 10SM SCT045 M11/M17 A2997 RMK AO2 PK WND
                 31030/1858 SLP150 T11061172 =
2019-01-21 13:53 METAR KHVN 211853Z 31015G25KT 10SM FEW036 FEW045 M11/M18 A2996 RMK AO2 SLP143
                 T11061178 =
2019-01-21 12:53 METAR KHVN 211753Z 31012G20KT 280V340 10SM OVC085 M13/M20 A2996 RMK AO2 SLP143
                 T11281200 11128 21167 51001 =
2019-01-21 11:53 METAR KHVN 211653Z 32016G25KT 10SM FEW039 BKN060 OVC075 M14/M20 A2996 RMK AO2 PK
                 WND 31026/1639 SLP143 T11391200 =
2019-01-21 10:53 METAR KHVN 211553Z 32013G21KT 10SM FEW031 BKN085 OVC110 M14/M21 A2997 RMK AO2
                 SLP147 T11391211 =
2019-01-21 09:53 METAR KHVN 211453Z 32013G22KT 10SM CLR M15/M21 A2995 RMK AO2 SLP143 T11501211
                 51027 =
2019-01-21 08:53 METAR KHVN 211353Z 30011G22KT 10SM CLR M16/M22 A2993 RMK AO2 SLP135 T11561217 =
2019-01-21 07:53 METAR KHVN 211253Z 33008KT 10SM CLR M16/M22 A2991 RMK AO2 SLP128 T11611217 =
2019-01-21 06:53 METAR KHVN 211153Z 32013G21KT 10SM CLR M16/M22 A2987 RMK AO2 SLP116 70042
                 T11611217 11133 21161 53024 =
2019-01-21 05:53 METAR KHVN 211053Z 31007G16KT 10SM CLR M16/M22 A2985 RMK AO2 SLP108 T11561217 =
2019-01-21 04:53 METAR KHVN 210953Z AUTO 33013G18KT 10SM CLR M15/M21 A2982 RMK AO2 SLP098
                 T11501211 =
2019-01-21 03:53 METAR KHVN 210853Z AUTO 32012G21KT 290V350 10SM CLR M14/M21 A2980 RMK AO2 SLP091
                 T11441206 51022 =
2019-01-21 02:53 METAR KHVN 210753Z AUTO 33008G17KT 10SM CLR M14/M20 A2979 RMK AO2 SLP086
                 T11391200 =
2019-01-21 01:53 METAR KHVN 210653Z AUTO 31009G17KT 10SM CLR M14/M20 A2977 RMK AO2 SLP080
                 T11391200 =
2019-01-21 00:53 METAR KHVN 210553Z AUTO 32014G22KT 10SM CLR M13/M19 A2974 RMK AO2 SLP070
                 T11331189 11061 21133 51036 =
2019-01-20 23:53 METAR KHVN 210453Z AUTO 33012G21KT 10SM CLR M12/M18 A2972 RMK AO2 SLP063
                 T11221183 400221122 =
2019-01-20 22:53 METAR KHVN 210353Z AUTO 34010KT 10SM FEW030 M11/M17 A2968 RMK AO2 PK WND
                 33027/0257 SLP049 T11111172 =
2019-01-20 21:53 METAR KHVN 210253Z 33020G32KT 10SM CLR M11/M18 A2963 RMK AO2 PK WND 32032/0246
                 SLP034 T11061178 51041 =
2019-01-20 20:53 METAR KHVN 210153Z 32014G25KT 10SM CLR M09/M16 A2959 RMK AO2 PK WND 31031/0104
                 SLP019 T10941156 =
2019-01-20 19:53 METAR KHVN 210053Z 32017G27KT 10SM CLR M08/M14 A2956 RMK AO2 PK WND 35035/0021
                 SLP010 T10831144 =
2019-01-20 18:53 METAR KHVN 202353Z 32018G29KT 280V350 10SM BKN075 M06/M12 A2951 RMK AO2 PK WND
                 34032/2342 PRESRR SLP993 60000 I6003 T10611122 10011 21061 51060 =
2019-01-20 17:53 METAR KHVN 202253Z 33013G23KT 10SM FEW026 SCT060 M04/M09 A2947 RMK AO2 PK WND
                 34035/2212 PRESRR SLP978 T10391094 =

Support USWX by starting your Amazon purchase here.